createdAt,value
2022-12-11T00:01:43.801Z,74.13
2022-12-11T00:04:16.040Z,73.98
2022-12-11T00:06:50.545Z,73.86
2022-12-11T00:09:23.250Z,73.84
2022-12-11T00:11:55.393Z,73.50
2022-12-11T00:14:27.509Z,73.60
2022-12-11T00:16:59.668Z,73.49
2022-12-11T00:19:32.078Z,73.36
2022-12-11T00:22:04.399Z,73.42
2022-12-11T00:24:36.563Z,73.76
2022-12-11T00:27:09.248Z,73.44
2022-12-11T00:29:41.491Z,73.82
2022-12-11T00:32:13.691Z,73.83
2022-12-11T00:34:45.938Z,73.86
2022-12-11T00:37:17.961Z,73.84
2022-12-11T00:39:50.390Z,73.84
2022-12-11T00:42:22.460Z,73.81
2022-12-11T00:44:56.541Z,73.85
2022-12-11T00:47:29.026Z,73.85
2022-12-11T00:50:01.119Z,73.77
2022-12-11T00:52:33.499Z,73.50
2022-12-11T00:55:06.247Z,73.64
2022-12-11T00:57:38.337Z,73.23
2022-12-11T01:00:13.355Z,73.26
2022-12-11T01:02:45.443Z,72.97
2022-12-11T01:05:18.453Z,73.10
2022-12-11T01:07:50.671Z,73.19
2022-12-11T01:10:26.061Z,73.39
2022-12-11T01:13:00.383Z,73.31
2022-12-11T01:15:39.954Z,73.16
2022-12-11T01:18:15.399Z,73.07
2022-12-11T01:20:47.463Z,73.29
2022-12-11T01:23:19.628Z,73.26
2022-12-11T01:25:52.186Z,73.37
2022-12-11T01:28:24.374Z,73.44
2022-12-11T01:30:56.509Z,73.53
2022-12-11T01:33:29.051Z,73.56
2022-12-11T01:36:01.135Z,73.36
2022-12-11T01:38:33.228Z,73.26
2022-12-11T01:41:05.576Z,73.14
2022-12-11T01:43:56.609Z,72.80
2022-12-11T01:46:29.389Z,72.90
2022-12-11T01:49:03.640Z,72.80
2022-12-11T01:51:41.999Z,73.02
2022-12-11T01:54:16.138Z,73.15
2022-12-11T01:56:49.970Z,73.20
2022-12-11T01:59:25.695Z,73.32
2022-12-11T02:02:02.029Z,73.21
2022-12-11T02:04:36.384Z,73.23
2022-12-11T02:07:08.473Z,73.28
2022-12-11T02:09:42.536Z,73.36
2022-12-11T02:12:24.303Z,73.33
2022-12-11T02:15:04.517Z,73.24
2022-12-11T02:17:42.847Z,73.31
2022-12-11T02:20:23.365Z,73.37
2022-12-11T02:23:25.559Z,73.23
2022-12-11T02:26:07.737Z,73.24
2022-12-11T02:28:44.717Z,73.01
2022-12-11T02:31:23.557Z,73.15
2022-12-11T02:34:04.594Z,73.08
2022-12-11T02:36:39.913Z,72.77
2022-12-11T02:39:15.433Z,72.80
2022-12-11T02:41:51.801Z,72.98
2022-12-11T02:44:26.656Z,72.88
2022-12-11T02:46:59.682Z,72.95
2022-12-11T02:49:32.450Z,72.90
2022-12-11T02:52:06.437Z,73.17
2022-12-11T02:54:40.731Z,73.14
2022-12-11T02:57:18.019Z,73.07
2022-12-11T02:59:50.545Z,73.14
2022-12-11T03:02:23.104Z,73.10
2022-12-11T03:04:56.799Z,73.11
2022-12-11T03:07:35.292Z,73.00
2022-12-11T03:10:09.645Z,73.20
2022-12-11T03:12:53.047Z,72.97
2022-12-11T03:15:35.016Z,72.90
2022-12-11T03:18:15.402Z,72.93
2022-12-11T03:20:52.383Z,72.93
2022-12-11T03:23:32.358Z,72.83
2022-12-11T03:26:07.631Z,72.64
2022-12-11T03:28:46.862Z,72.63
2022-12-11T03:31:24.841Z,72.52
2022-12-11T03:34:03.688Z,72.63
2022-12-11T03:36:38.628Z,72.77
2022-12-11T03:39:10.969Z,72.73
2022-12-11T03:41:45.775Z,72.94
2022-12-11T03:44:18.204Z,72.86
2022-12-11T03:46:51.620Z,72.96
2022-12-11T03:49:29.039Z,72.91
2022-12-11T03:52:04.178Z,73.04
2022-12-11T03:54:37.905Z,73.02
2022-12-11T03:57:12.838Z,73.13
2022-12-11T03:59:45.013Z,73.00
2022-12-11T04:02:17.056Z,72.94
2022-12-11T04:04:49.675Z,73.02
2022-12-11T04:07:21.792Z,72.93
2022-12-11T04:09:53.935Z,73.09
2022-12-11T04:12:26.028Z,72.86
2022-12-11T04:15:04.083Z,72.76
2022-12-11T04:17:55.142Z,72.72
2022-12-11T04:20:45.004Z,72.80
2022-12-11T04:23:37.112Z,72.85
2022-12-11T04:26:11.435Z,72.84
2022-12-11T04:28:44.495Z,73.07
2022-12-11T04:31:18.547Z,73.09
2022-12-11T04:33:50.853Z,73.09
2022-12-11T04:36:22.919Z,72.93
2022-12-11T04:38:55.011Z,73.10
2022-12-11T04:41:27.103Z,73.06
2022-12-11T04:43:59.347Z,72.85
2022-12-11T04:46:31.556Z,72.90
2022-12-11T04:49:03.864Z,72.81
2022-12-11T04:51:35.927Z,72.90
2022-12-11T04:54:08.072Z,72.91
2022-12-11T04:56:40.169Z,72.58
2022-12-11T04:59:12.311Z,72.60
2022-12-11T05:01:44.552Z,72.61
2022-12-11T05:04:17.006Z,72.65
2022-12-11T05:06:52.628Z,72.59
2022-12-11T05:09:26.149Z,72.67
2022-12-11T05:11:58.370Z,72.92
2022-12-11T05:14:32.173Z,72.95
2022-12-11T05:17:04.601Z,72.92
2022-12-11T05:19:36.793Z,72.78
2022-12-11T05:22:08.884Z,72.55
2022-12-11T05:24:40.981Z,72.77
2022-12-11T05:27:13.220Z,72.79
2022-12-11T05:29:45.719Z,72.64
2022-12-11T05:32:17.838Z,72.70
2022-12-11T05:34:51.311Z,72.70
2022-12-11T05:37:23.301Z,72.80
2022-12-11T05:39:55.326Z,72.91
2022-12-11T05:42:29.138Z,72.66
2022-12-11T05:45:01.529Z,72.33
2022-12-11T05:47:33.896Z,72.42
2022-12-11T05:50:06.682Z,72.50
2022-12-11T05:52:38.897Z,72.61
2022-12-11T05:55:12.000Z,72.42
2022-12-11T05:57:44.750Z,72.51
2022-12-11T06:00:17.093Z,72.47
2022-12-11T06:02:49.431Z,72.88
2022-12-11T06:05:21.639Z,72.65
2022-12-11T06:07:53.821Z,72.69
2022-12-11T06:10:26.105Z,72.68
2022-12-11T06:12:58.314Z,73.06
2022-12-11T06:15:30.689Z,72.72
2022-12-11T06:18:02.857Z,73.04
2022-12-11T06:20:35.920Z,73.03
2022-12-11T06:23:08.267Z,72.98
2022-12-11T06:25:42.755Z,72.60
2022-12-11T06:28:14.959Z,72.47
2022-12-11T06:30:47.155Z,72.51
2022-12-11T06:33:19.347Z,72.37
2022-12-11T06:35:51.514Z,72.28
2022-12-11T06:38:23.765Z,72.28
2022-12-11T06:40:59.626Z,72.48
2022-12-11T06:43:32.015Z,72.58
2022-12-11T06:46:06.501Z,72.92
2022-12-11T06:48:38.964Z,72.93
2022-12-11T06:51:14.610Z,72.79
2022-12-11T06:53:47.061Z,72.75
2022-12-11T06:56:19.104Z,72.68
2022-12-11T06:58:52.119Z,72.81
2022-12-11T07:01:27.055Z,72.92
2022-12-11T07:04:00.909Z,72.74
2022-12-11T07:06:33.196Z,72.68
2022-12-11T07:09:06.573Z,72.56
2022-12-11T07:11:38.896Z,72.56
2022-12-11T07:14:11.619Z,72.63
2022-12-11T07:16:43.748Z,72.47
2022-12-11T07:19:15.961Z,72.35
2022-12-11T07:21:48.155Z,72.17
2022-12-11T07:24:20.938Z,72.34
2022-12-11T07:26:54.844Z,72.50
2022-12-11T07:29:27.061Z,72.70
2022-12-11T07:31:59.488Z,72.88
2022-12-11T07:34:31.684Z,72.84
2022-12-11T07:37:03.759Z,72.76
2022-12-11T07:39:36.250Z,72.56
2022-12-11T07:42:08.470Z,72.81
2022-12-11T07:44:40.640Z,73.06
2022-12-11T08:11:28.689Z,71.72
2022-12-11T08:14:01.164Z,71.57
2022-12-11T08:16:33.618Z,71.85
2022-12-11T08:19:05.865Z,72.17
2022-12-11T08:21:37.976Z,72.37
2022-12-11T08:24:11.299Z,72.41
2022-12-11T08:26:43.439Z,72.81
2022-12-11T08:29:16.171Z,72.96
2022-12-11T08:31:48.261Z,72.90
2022-12-11T08:34:20.428Z,72.56
2022-12-11T08:36:52.932Z,72.66
2022-12-11T08:39:25.432Z,72.64
2022-12-11T08:41:57.628Z,72.45
2022-12-11T08:44:30.038Z,72.50
2022-12-11T08:47:02.371Z,72.60
2022-12-11T08:49:34.853Z,72.79
2022-12-11T08:52:08.023Z,72.61
2022-12-11T08:54:40.986Z,72.46
2022-12-11T08:57:13.094Z,72.26
2022-12-11T08:59:46.101Z,72.17
2022-12-11T09:02:18.382Z,72.41
2022-12-11T09:04:50.670Z,72.40
2022-12-11T09:07:22.865Z,72.47
2022-12-11T09:09:56.851Z,72.58
2022-12-11T09:12:29.453Z,72.64
2022-12-11T09:15:01.601Z,72.78
2022-12-11T09:17:34.738Z,72.69
2022-12-11T09:20:08.913Z,72.65
2022-12-11T09:22:42.945Z,72.54
2022-12-11T09:25:15.109Z,72.56
2022-12-11T09:27:47.639Z,72.61
2022-12-11T09:30:20.254Z,72.68
2022-12-11T09:32:53.226Z,72.59
2022-12-11T09:35:25.422Z,72.49
2022-12-11T09:37:57.947Z,72.54
2022-12-11T09:40:30.626Z,72.26
2022-12-11T09:43:10.525Z,72.45
2022-12-11T09:45:42.721Z,71.99
2022-12-11T09:48:22.798Z,72.26
2022-12-11T09:50:57.143Z,72.31
2022-12-11T09:53:35.992Z,72.35
2022-12-11T09:56:17.636Z,72.66
2022-12-11T09:59:03.639Z,72.55
2022-12-11T10:01:45.960Z,73.00
2022-12-11T10:04:42.343Z,72.91
2022-12-11T10:07:18.098Z,72.84
2022-12-11T10:09:55.775Z,72.79
2022-12-11T10:12:40.109Z,72.29
2022-12-11T10:15:34.935Z,72.47
2022-12-11T10:18:12.518Z,72.39
2022-12-11T10:20:45.611Z,72.65
2022-12-11T10:23:22.407Z,72.67
2022-12-11T10:25:59.312Z,72.30
2022-12-11T10:28:31.767Z,72.02
2022-12-11T10:31:12.533Z,72.22
2022-12-11T10:34:00.677Z,72.12
2022-12-11T10:36:36.532Z,72.27
2022-12-11T10:39:16.147Z,72.48
2022-12-11T10:41:50.184Z,72.60
2022-12-11T10:44:24.604Z,72.47
2022-12-11T10:47:07.654Z,72.34
2022-12-11T10:49:44.480Z,72.30
2022-12-11T10:52:26.429Z,72.54
2022-12-11T10:55:03.254Z,72.62
2022-12-11T10:57:38.277Z,72.44
2022-12-11T11:00:10.483Z,72.58
2022-12-11T11:02:46.261Z,72.49
2022-12-11T11:05:32.535Z,72.58
2022-12-11T11:08:22.725Z,72.37
2022-12-11T11:10:59.963Z,72.21
2022-12-11T11:13:33.172Z,72.22
2022-12-11T11:16:09.982Z,72.31
2022-12-11T11:18:43.893Z,72.19
2022-12-11T11:21:22.592Z,72.17
2022-12-11T11:23:55.908Z,72.52
2022-12-11T11:26:43.879Z,72.76
2022-12-11T11:29:28.811Z,72.80
2022-12-11T11:32:14.552Z,72.63
2022-12-11T11:34:46.721Z,72.88
2022-12-11T11:37:34.493Z,72.75
2022-12-11T11:40:14.943Z,72.71
2022-12-11T11:42:53.510Z,72.62
2022-12-11T11:45:30.774Z,72.43
2022-12-11T11:48:11.978Z,72.52
2022-12-11T11:50:50.597Z,72.61
2022-12-11T11:53:28.195Z,72.52
2022-12-11T11:56:15.901Z,72.41
2022-12-11T11:58:59.444Z,72.55
2022-12-11T12:01:32.627Z,72.47
2022-12-11T12:04:06.863Z,72.80
2022-12-11T12:06:58.804Z,72.82
2022-12-11T12:09:42.501Z,72.61
2022-12-11T12:12:33.944Z,72.40
2022-12-11T12:15:30.756Z,72.62
2022-12-11T12:18:15.314Z,72.44
2022-12-11T12:20:55.804Z,72.55
2022-12-11T12:23:51.140Z,72.57
2022-12-11T12:26:29.041Z,72.77
2022-12-11T12:29:12.989Z,72.45
2022-12-11T12:31:58.679Z,72.36
2022-12-11T12:34:45.584Z,72.37
2022-12-11T12:37:29.198Z,72.49
2022-12-11T12:40:14.752Z,72.45
2022-12-11T12:42:54.729Z,72.37
2022-12-11T12:45:33.282Z,72.49
2022-12-11T12:48:05.620Z,72.80
2022-12-11T12:50:43.419Z,72.65
2022-12-11T12:53:20.529Z,72.59
2022-12-11T12:55:54.230Z,72.83
2022-12-11T12:58:32.111Z,72.53
2022-12-11T13:01:20.550Z,72.56
2022-12-11T13:03:59.153Z,72.68
2022-12-11T13:06:42.578Z,72.73
2022-12-11T13:09:18.241Z,72.90
2022-12-11T13:11:54.755Z,72.36
2022-12-11T13:14:31.947Z,72.43
2022-12-11T13:17:36.728Z,72.54
2022-12-11T13:20:19.831Z,72.25
2022-12-11T13:23:10.042Z,72.57
2022-12-11T13:25:54.861Z,72.47
2022-12-11T13:28:34.369Z,72.60
2022-12-11T13:31:24.748Z,72.70
2022-12-11T13:34:04.157Z,72.73
2022-12-11T13:36:40.447Z,72.89
2022-12-11T13:39:20.339Z,72.82
2022-12-11T13:41:56.021Z,72.93
2022-12-11T13:44:33.055Z,72.98
2022-12-11T13:47:07.421Z,72.85
2022-12-11T13:49:42.508Z,72.78
2022-12-11T13:52:22.141Z,72.49
2022-12-11T13:54:56.190Z,72.46
2022-12-11T13:57:29.639Z,72.51
2022-12-11T14:00:02.166Z,72.45
2022-12-11T14:02:40.322Z,72.79
2022-12-11T14:05:15.588Z,72.56
2022-12-11T14:07:50.920Z,72.98
2022-12-11T14:10:25.531Z,73.03
2022-12-11T14:13:04.129Z,73.04
2022-12-11T14:15:38.546Z,72.97
2022-12-11T14:18:16.115Z,72.92
2022-12-11T14:20:54.581Z,72.85
2022-12-11T14:23:29.087Z,72.84
2022-12-11T14:26:03.680Z,73.00
2022-12-11T14:28:43.143Z,73.05
2022-12-11T14:31:20.705Z,73.08
2022-12-11T14:33:56.491Z,72.71
2022-12-11T14:36:30.503Z,72.75
2022-12-11T14:39:07.560Z,72.68
2022-12-11T14:41:47.359Z,72.53
2022-12-11T14:44:21.651Z,72.62
2022-12-11T14:46:58.414Z,72.71
2022-12-11T14:49:42.656Z,72.99
2022-12-11T14:52:20.559Z,72.89
2022-12-11T14:54:58.129Z,72.72
2022-12-11T14:57:33.215Z,72.95
2022-12-11T15:00:04.254Z,72.92
2022-12-11T15:02:37.841Z,73.08
2022-12-11T15:05:19.295Z,73.03
2022-12-11T15:08:00.124Z,73.10
2022-12-11T15:10:38.812Z,72.93
2022-12-11T15:13:11.771Z,73.03
2022-12-11T15:15:48.830Z,72.99
2022-12-11T15:18:24.683Z,73.11
2022-12-11T15:21:00.616Z,72.79
2022-12-11T15:23:33.266Z,72.50
2022-12-11T15:26:05.568Z,72.66
2022-12-11T15:28:40.322Z,72.74
2022-12-11T15:31:27.210Z,72.81
2022-12-11T15:33:59.688Z,72.38
2022-12-11T15:36:36.229Z,72.80
2022-12-11T15:39:10.421Z,72.91
2022-12-11T15:41:46.187Z,73.12
2022-12-11T15:44:22.642Z,73.06
2022-12-11T15:46:54.989Z,73.20
2022-12-11T15:49:27.158Z,73.11
2022-12-11T15:51:59.371Z,72.75
2022-12-11T15:54:31.468Z,72.92
2022-12-11T15:57:08.779Z,73.03
2022-12-11T15:59:41.003Z,73.14
2022-12-11T16:02:14.786Z,72.98
2022-12-11T16:04:46.985Z,72.87
2022-12-11T16:07:21.782Z,72.96
2022-12-11T16:09:54.165Z,72.63
2022-12-11T16:12:26.274Z,72.45
2022-12-11T16:14:58.415Z,72.59
2022-12-11T16:17:31.507Z,72.85
2022-12-11T16:20:03.774Z,72.74
2022-12-11T16:22:35.917Z,72.64
2022-12-11T16:25:09.923Z,72.92
2022-12-11T16:27:42.378Z,72.77
2022-12-11T16:30:16.748Z,72.54
2022-12-11T16:32:48.865Z,72.67
2022-12-11T16:35:21.993Z,72.49
2022-12-11T16:37:54.888Z,72.88
2022-12-11T16:40:27.469Z,73.04
2022-12-11T16:42:59.705Z,73.08
2022-12-11T16:45:33.649Z,73.03
2022-12-11T16:48:07.537Z,73.13
2022-12-11T16:50:42.362Z,73.24
2022-12-11T16:53:14.842Z,73.17
2022-12-11T16:55:47.159Z,73.00
2022-12-11T16:58:20.296Z,73.00
2022-12-11T17:00:52.802Z,72.74
2022-12-11T17:03:25.031Z,72.76
2022-12-11T17:05:57.806Z,72.95
2022-12-11T17:08:30.136Z,73.13
2022-12-11T17:11:02.243Z,73.24
2022-12-11T17:13:36.112Z,73.31
2022-12-11T17:16:10.414Z,73.34
2022-12-11T17:18:43.484Z,73.27
2022-12-11T17:21:18.621Z,73.37
2022-12-11T17:23:51.623Z,73.33
2022-12-11T17:26:25.364Z,73.38
2022-12-11T17:28:58.915Z,73.14
2022-12-11T17:31:31.086Z,73.29
2022-12-11T17:34:03.489Z,73.03
2022-12-11T17:36:35.925Z,73.18
2022-12-11T17:39:08.534Z,73.27
2022-12-11T17:41:40.780Z,73.16
2022-12-11T17:44:13.334Z,73.08
2022-12-11T17:46:45.561Z,73.01
2022-12-11T17:49:17.796Z,72.82
2022-12-11T17:51:50.271Z,72.48
2022-12-11T17:54:22.518Z,72.74
2022-12-11T17:56:54.686Z,72.65
2022-12-11T17:59:26.879Z,72.81
2022-12-11T18:01:59.279Z,72.71
2022-12-11T18:04:31.574Z,72.94
2022-12-11T18:07:03.742Z,73.15
2022-12-11T18:09:35.955Z,73.31
2022-12-11T18:12:09.238Z,73.15
2022-12-11T18:14:41.427Z,73.29
2022-12-11T18:17:13.568Z,73.14
2022-12-11T18:19:46.327Z,73.26
2022-12-11T18:22:18.723Z,73.21
2022-12-11T18:24:51.457Z,73.18
2022-12-11T18:27:23.649Z,73.30
2022-12-11T18:29:55.897Z,73.24
2022-12-11T18:32:28.953Z,73.05
2022-12-11T18:35:02.408Z,73.38
2022-12-11T18:37:34.649Z,73.17
2022-12-11T18:40:10.410Z,72.93
2022-12-11T18:42:42.598Z,72.66
2022-12-11T18:45:15.040Z,72.58
2022-12-11T18:47:47.419Z,72.64
2022-12-11T18:50:19.715Z,72.53
2022-12-11T18:52:55.829Z,72.51
2022-12-11T18:55:28.019Z,72.74
2022-12-11T18:58:00.212Z,72.79
2022-12-11T19:00:32.405Z,72.84
2022-12-11T19:03:04.549Z,72.79
2022-12-11T19:05:40.430Z,72.97
2022-12-11T19:08:14.071Z,72.94
2022-12-11T19:10:47.836Z,72.82
2022-12-11T19:13:19.954Z,73.21
2022-12-11T19:15:52.072Z,72.98
2022-12-11T19:18:24.445Z,72.89
2022-12-11T19:21:06.492Z,73.20
2022-12-11T19:23:41.400Z,72.80
2022-12-11T19:26:16.566Z,72.66
2022-12-11T19:28:49.837Z,72.35
2022-12-11T19:31:23.908Z,72.93
2022-12-11T19:33:56.909Z,72.63
2022-12-11T19:36:31.643Z,72.70
2022-12-11T19:39:08.352Z,72.72
2022-12-11T19:41:44.319Z,72.94
2022-12-11T19:44:16.566Z,72.82
2022-12-11T19:46:49.164Z,72.73
2022-12-11T19:49:21.670Z,72.95
2022-12-11T19:51:53.848Z,72.95
2022-12-11T19:54:26.985Z,73.03
2022-12-11T19:56:59.508Z,73.06
2022-12-11T19:59:31.654Z,72.96
2022-12-11T20:02:03.829Z,72.83
2022-12-11T20:04:36.088Z,73.08
2022-12-11T20:07:08.563Z,72.75
2022-12-11T20:09:40.759Z,72.62
2022-12-11T20:12:13.385Z,72.62
2022-12-11T20:14:45.505Z,72.78
2022-12-11T20:17:17.766Z,72.67
2022-12-11T20:19:50.121Z,72.75
2022-12-11T20:22:22.449Z,73.12
2022-12-11T20:24:54.539Z,73.01
2022-12-11T20:27:28.592Z,72.92
2022-12-11T20:30:00.818Z,73.12
2022-12-11T20:32:33.464Z,73.21
2022-12-11T20:35:06.871Z,73.15
2022-12-11T20:37:39.010Z,72.97
2022-12-11T20:40:14.304Z,73.12
2022-12-11T20:42:46.599Z,73.09
2022-12-11T20:45:19.491Z,72.87
2022-12-11T20:47:51.701Z,72.82
2022-12-11T20:50:24.254Z,73.04
2022-12-11T20:52:56.472Z,72.89
2022-12-11T20:55:28.643Z,72.91
2022-12-11T20:58:01.014Z,72.83
2022-12-11T21:00:33.234Z,72.97
2022-12-11T21:03:05.634Z,72.85
2022-12-11T21:05:43.079Z,72.95
2022-12-11T21:08:15.429Z,73.00
2022-12-11T21:10:48.025Z,73.19
2022-12-11T21:13:20.474Z,73.39
2022-12-11T21:15:56.494Z,73.54
2022-12-11T21:18:28.806Z,73.86
2022-12-11T21:21:01.049Z,73.66
2022-12-11T21:23:33.603Z,73.81
2022-12-11T21:26:06.436Z,73.74
2022-12-11T21:28:38.733Z,73.75
2022-12-11T21:31:14.636Z,73.69
2022-12-11T21:33:48.079Z,73.63
2022-12-11T21:36:20.665Z,73.81
2022-12-11T21:38:53.373Z,73.88
2022-12-11T21:41:26.485Z,73.61
2022-12-11T21:45:25.988Z,73.57
2022-12-11T21:46:51.723Z,73.36
2022-12-11T21:49:24.007Z,73.48
2022-12-11T21:51:56.185Z,73.67
2022-12-11T21:54:28.778Z,73.67
2022-12-11T21:57:00.998Z,73.68
2022-12-11T21:59:33.530Z,73.76
2022-12-11T22:02:05.898Z,73.89
2022-12-11T22:04:38.066Z,73.86
2022-12-11T22:07:10.414Z,73.90
2022-12-11T22:09:42.583Z,74.01
2022-12-11T22:12:22.380Z,74.04
2022-12-11T22:14:55.263Z,74.05
2022-12-11T22:17:27.483Z,73.99
2022-12-11T22:20:01.164Z,74.00
2022-12-11T22:22:33.458Z,74.05
2022-12-11T22:25:07.904Z,73.91
2022-12-11T22:27:40.072Z,73.73
2022-12-11T22:30:14.419Z,73.73
2022-12-11T22:32:46.611Z,73.94
2022-12-11T22:39:42.292Z,73.96
2022-12-11T22:42:30.973Z,74.08
2022-12-11T22:45:19.720Z,74.03
2022-12-11T22:47:52.039Z,74.19
2022-12-11T22:50:24.312Z,74.22
2022-12-11T22:52:56.558Z,74.25
2022-12-11T22:55:28.824Z,74.30
2022-12-11T22:58:01.200Z,74.05
2022-12-11T23:00:33.477Z,74.12
2022-12-11T23:03:06.304Z,74.20
2022-12-11T23:05:43.402Z,74.13
2022-12-11T23:08:15.823Z,74.06
2022-12-11T23:10:48.110Z,74.35
2022-12-11T23:13:20.483Z,73.97
2022-12-11T23:15:52.753Z,73.80
2022-12-11T23:18:25.025Z,73.90
2022-12-11T23:20:57.244Z,73.84
2022-12-11T23:23:29.632Z,73.96
2022-12-11T23:26:02.179Z,74.06
2022-12-11T23:28:34.389Z,74.01
2022-12-11T23:31:07.091Z,74.19
2022-12-11T23:33:39.494Z,74.35
2022-12-11T23:36:14.501Z,74.36
2022-12-11T23:38:49.558Z,74.52
2022-12-11T23:41:25.709Z,74.34
2022-12-11T23:43:57.946Z,74.55
2022-12-11T23:46:30.268Z,74.57
2022-12-11T23:49:02.563Z,74.57
2022-12-11T23:51:34.803Z,74.51
2022-12-11T23:54:07.186Z,74.49
2022-12-11T23:56:39.810Z,74.36
2022-12-11T23:59:15.050Z,74.20
